M I D A S
Marine Information and Data Acquisition System
Tripno 522 of the Zeeleeuw from 2003-06-23 06:31:47 to 2003-06-23 11:49:05
Back to CruiseResearch ActivitiesStationsMapUnderway DataData graphs

EquipmentUnitsComment
TimeDGPSUTC
LatitudeDGPSDM.mWGS84
LongitudeDGPSDM.mWGS84
TemperatureSBE03/SBE38deg celciusITS90
ConductivitySBE21S/mITS90
SalinitySBE21 Practical Salinity Units
ChlorophylAChelsea fluorimeterg/lCalibrated in Aceton
Missing or incorrect values are displayed as -999
Sea surface data collected by the RV Zeeleeuw from 2003-06-23 06:31:47 to 2003-06-23 11:49:05
Time Latitude Longitude Temperature Conductivity Salinity ChlorophylA
2003-06-23 06:32:53 51°13.65 2°55.91 -999 5.128065 34.311563 -0.781249
2003-06-23 06:33:53 51°13.67 2°55.81 -999 5.127959 34.31077 -0.781249
2003-06-23 06:34:49 51°13.69 2°55.78 -999 5.127959 34.311794 -0.71383
2003-06-23 06:35:49 51°13.72 2°55.79 -999 5.127854 34.311001 -0.74754
2003-06-23 06:36:53 51°13.72 2°55.79 -999 5.127748 34.310719 -0.74754
2003-06-23 06:37:49 51°13.77 2°55.7 -999 5.127643 34.311463 -0.781249
2003-06-23 06:38:49 51°13.87 2°55.6 -999 5.127643 34.313513 -0.781249
2003-06-23 06:39:49 51°13.99 2°55.51 -999 5.127431 34.311413 -0.74754
2003-06-23 06:40:49 51°14.11 2°55.42 -999 5.127431 34.311413 -0.781249
2003-06-23 06:41:49 51°14.23 2°55.31 -999 5.127431 34.312438 -0.781249
2003-06-23 06:42:49 51°14.34 2°55.12 -999 5.127431 34.312438 -0.74754
2003-06-23 06:43:49 51°14.5 2°54.96 -999 5.12722 34.311876 -0.74754
2003-06-23 06:44:49 51°14.68 2°54.78 -999 5.127115 34.312107 -0.781249
2003-06-23 06:45:49 51°14.85 2°54.59 -999 5.127115 34.311594 -0.74754
2003-06-23 06:46:49 51°15.03 2°54.39 -999 5.127115 34.312107 -0.781249
2003-06-23 06:47:49 51°15.2 2°54.19 -999 5.127115 34.311594 -0.781249
2003-06-23 06:48:49 51°15.39 2°54 -999 5.12722 34.313413 -0.74754
2003-06-23 06:49:49 51°15.58 2°53.83 -999 5.12722 34.312901 -0.781249
2003-06-23 06:50:49 51°15.78 2°53.65 -999 5.127009 34.312338 -0.781249
2003-06-23 06:51:49 51°15.98 2°53.48 49.041649 5.127009 34.312338 -0.74754
2003-06-23 06:52:49 51°16.18 2°53.3 48.274998 5.12722 34.313413 -0.814958
2003-06-23 06:53:49 51°16.38 2°53.12 48.381315 5.12722 34.313926 -0.74754
2003-06-23 06:54:49 51°16.59 2°52.97 45.456949 5.127009 34.312851 -0.781249
2003-06-23 06:55:49 51°16.8 2°52.81 45.892199 5.127115 34.313132 -0.781249
2003-06-23 06:56:49 51°17.01 2°52.66 47.028032 5.127115 34.313645 -0.781249
2003-06-23 06:57:49 51°17.22 2°52.5 48.794762 5.127115 34.313645 -0.781249
2003-06-23 06:58:49 51°17.44 2°52.35 45.219228 5.127326 34.315232 -0.781249
2003-06-23 06:59:49 51°17.65 2°52.19 47.185385 5.12722 34.313926 -0.781249
2003-06-23 07:00:49 51°17.86 2°52.04 47.897643 5.12722 34.314438 -0.781249
2003-06-23 07:01:49 51°18.03 2°51.82 48.659631 5.12722 34.313926 -0.781249
2003-06-23 07:02:49 51°18.17 2°51.55 45.093835 5.127432 34.315001 -0.781249
2003-06-23 07:03:49 51°18.32 2°51.28 47.350676 5.127432 34.315001 -0.781249
2003-06-23 07:04:49 51°18.46 2°51.01 47.177799 5.127432 34.315514 -0.781249
2003-06-23 07:05:49 51°18.61 2°50.75 45.503466 5.127537 34.315795 -0.74754
2003-06-23 07:06:49 51°18.75 2°50.49 44.344117 5.127432 34.315001 -0.781249
2003-06-23 07:07:49 51°18.89 2°50.23 45.688435 5.127643 34.316589 -0.74754
2003-06-23 07:08:49 51°19.03 2°49.97 44.403919 5.127643 34.315563 -0.74754
2003-06-23 07:09:49 51°19.16 2°49.72 45.465388 5.127748 34.31687 -0.781249
2003-06-23 07:10:49 51°19.3 2°49.47 44.487407 5.128065 34.318739 -0.74754
2003-06-23 07:11:49 51°19.43 2°49.22 45.704568 5.127854 34.317151 -0.781249
2003-06-23 07:12:49 51°19.53 2°48.95 44.793936 5.127854 34.316638 -0.781249
2003-06-23 07:13:49 51°19.59 2°48.64 44.185933 5.127959 34.31692 -0.781249
2003-06-23 07:14:49 51°19.64 2°48.32 44.572958 5.12817 34.31902 -0.781249
2003-06-23 07:15:49 51°19.7 2°47.99 45.225998 5.127959 34.31692 -0.814958
2003-06-23 07:16:49 51°19.76 2°47.66 44.127424 5.128065 34.317713 -0.781249
2003-06-23 07:17:49 51°19.82 2°47.33 41.900733 5.128276 34.318788 -0.74754
2003-06-23 07:18:49 51°19.87 2°47 44.467301 5.128276 34.318788 -0.74754
2003-06-23 07:19:49 51°19.9 2°46.67 42.179183 5.128382 34.318557 -0.74754
2003-06-23 07:20:49 51°19.93 2°46.33 44.810329 5.128382 34.318557 -0.74754
2003-06-23 07:21:49 51°19.96 2°46.01 45.666174 5.128593 34.319632 -0.74754
2003-06-23 07:22:49 51°20 2°45.68 42.898085 5.128593 34.319119 -0.74754
2003-06-23 07:23:49 51°20.04 2°45.36 44.292238 5.128909 34.321501 -0.781249
2003-06-23 07:24:49 51°20.08 2°45.03 42.674453 5.128909 34.321501 -0.781249
2003-06-23 07:25:49 51°20.12 2°44.7 43.892179 5.129015 34.321269 -0.74754
2003-06-23 07:26:49 51°20.16 2°44.37 40.947864 5.128909 34.320475 -0.781249
2003-06-23 07:27:49 51°20.2 2°44.03 43.933699 5.129121 34.32155 -0.781249
2003-06-23 07:28:49 51°20.24 2°43.69 42.446357 5.129226 34.322344 -0.74754
2003-06-23 07:29:49 51°20.28 2°43.36 43.652676 5.129226 34.321831 -0.74754
2003-06-23 07:30:49 51°20.31 2°43.02 44.533518 5.129226 34.321831 -0.781249
2003-06-23 07:31:49 51°20.35 2°42.69 42.468221 5.129226 34.321319 -0.74754
2003-06-23 07:32:49 51°20.38 2°42.36 43.126564 5.129332 34.3216 -0.781249
2003-06-23 07:33:49 51°20.41 2°42.03 44.854769 5.129648 34.323469 -0.781249
2003-06-23 07:34:49 51°20.45 2°41.7 41.130681 5.129648 34.323469 -0.781249
2003-06-23 07:35:49 51°20.48 2°41.38 43.367336 5.129648 34.323469 -0.74754
2003-06-23 07:36:49 51°20.52 2°41.05 43.496637 5.129648 34.322956 -0.781249
2003-06-23 07:37:49 51°20.57 2°40.71 42.535435 5.129754 34.323237 -0.781249
2003-06-23 07:38:49 51°20.61 2°40.38 43.058897 5.129965 34.324312 -0.781249
2003-06-23 07:39:49 51°20.65 2°40.04 43.982157 5.129965 34.323799 -0.814958
2003-06-23 07:40:49 51°20.69 2°39.71 44.287547 5.130176 34.324362 -0.814958
2003-06-23 07:41:49 51°20.72 2°39.37 43.859268 5.130071 34.323055 -0.781249
2003-06-23 07:42:49 51°20.76 2°39.04 44.264944 5.130282 34.324643 -0.781249
2003-06-23 07:43:49 51°20.8 2°38.7 43.343499 5.130387 34.324411 -0.781249
2003-06-23 07:44:49 51°20.83 2°38.36 44.811824 5.130598 34.324973 -0.74754
2003-06-23 07:45:49 51°20.86 2°38.02 44.601152 5.130704 34.325254 -0.781249
2003-06-23 07:46:49 51°20.9 2°37.69 42.708434 5.130598 34.324461 -0.781249
2003-06-23 07:47:49 51°20.93 2°37.35 43.586058 5.130915 34.325817 -0.781249
2003-06-23 07:48:49 51°20.95 2°37.01 43.202455 5.131021 34.325585 -0.781249
2003-06-23 07:49:49 51°20.97 2°36.68 43.843342 5.131126 34.325866 -0.781249
2003-06-23 07:50:49 51°20.98 2°36.34 44.454728 5.131126 34.325354 -0.781249
2003-06-23 07:51:49 51°21 2°36 43.064107 5.131337 34.326428 -0.781249
2003-06-23 07:52:49 51°21.02 2°35.67 41.046487 5.131443 34.32671 -0.74754
2003-06-23 07:53:49 51°21.04 2°35.33 45.029635 5.131548 34.325966 -0.781249
2003-06-23 07:54:49 51°21.06 2°35 45.071651 5.131654 34.326247 -0.74754
2003-06-23 07:55:49 51°21.09 2°34.66 45.39052 5.131865 34.327834 -0.74754
2003-06-23 07:56:49 51°21.11 2°34.32 43.567164 5.132076 34.328396 -0.781249
2003-06-23 07:57:49 51°21.13 2°33.99 44.444922 5.132182 34.328677 -0.781249
2003-06-23 07:58:49 51°21.16 2°33.65 44.318403 5.132182 34.328165 -0.781249
2003-06-23 07:59:49 51°21.18 2°33.31 43.923446 5.132182 34.327652 -0.781249
2003-06-23 08:00:49 51°21.28 2°33.01 45.639465 5.132498 34.330032 -0.781249
2003-06-23 08:01:49 51°21.5 2°32.89 43.779726 5.132709 34.330082 -0.781249
2003-06-23 08:02:49 51°21.73 2°32.84 43.829845 5.132709 34.32957 -0.74754
2003-06-23 08:03:49 51°21.97 2°32.79 44.755127 5.132815 34.329851 -0.74754
2003-06-23 08:04:49 51°22.2 2°32.74 44.966294 5.133026 34.330925 -0.781249
2003-06-23 08:05:49 51°22.44 2°32.7 43.278188 5.133026 34.330413 -0.781249
2003-06-23 08:06:49 51°22.68 2°32.67 43.334279 5.133132 34.330694 -0.74754
2003-06-23 08:07:49 51°22.91 2°32.62 43.57862 5.133448 34.333074 -0.781249
2003-06-23 08:08:49 51°23.02 2°32.36 43.568711 5.13366 34.333636 -0.781249
2003-06-23 08:09:49 51°23.02 2°32.03 43.735962 5.133765 34.331355 -0.781249
2003-06-23 08:10:49 51°23.01 2°31.71 40.213583 5.133871 34.330612 -0.74754
2003-06-23 08:11:49 51°23.01 2°31.39 44.135848 5.134293 34.331736 -0.781249
2003-06-23 08:12:49 51°23.01 2°31.06 44.154408 5.134504 34.331785 -0.781249
2003-06-23 08:13:49 51°23.01 2°30.74 43.067999 5.134715 34.331835 -0.74754
2003-06-23 08:14:49 51°22.99 2°30.42 43.468576 5.135032 34.332678 -0.74754
2003-06-23 08:15:49 51°22.97 2°30.09 45.16441 5.135137 34.332959 -0.781249
2003-06-23 08:16:49 51°22.95 2°29.77 44.487054 5.135348 34.333009 -0.781249
2003-06-23 08:17:49 51°22.92 2°29.45 44.99187 5.135559 34.333571 -0.781249
2003-06-23 08:18:49 51°22.9 2°29.12 41.055352 5.135771 34.33362 -0.781249
2003-06-23 08:19:49 51°22.89 2°28.8 40.96325 5.135982 34.334694 -0.74754
2003-06-23 08:20:49 51°22.87 2°28.47 38.88242 5.135982 34.33367 -0.74754
2003-06-23 08:21:49 51°22.85 2°28.15 41.203185 5.136298 34.334513 -0.781249
2003-06-23 08:22:49 51°22.82 2°27.82 39.624737 5.136509 34.335587 -0.781249
2003-06-23 08:23:49 51°22.8 2°27.49 40.302847 5.136721 34.336149 -0.781249
2003-06-23 08:24:49 51°22.78 2°27.16 39.712807 5.136826 34.335918 -0.781249
2003-06-23 08:25:49 51°22.75 2°26.83 40.010877 5.136932 34.336199 -0.781249
2003-06-23 08:26:49 51°22.73 2°26.5 39.097475 5.137037 34.335456 -0.781249
2003-06-23 08:27:49 51°22.71 2°26.17 37.760045 5.137354 34.336298 -0.781249
2003-06-23 08:28:49 51°22.82 2°25.88 41.56137 5.137354 34.33681 -0.781249
2003-06-23 08:29:49 51°23.04 2°25.8 40.459426 5.137459 34.335555 -0.781249
2003-06-23 08:30:49 51°23.28 2°25.86 38.514248 5.137776 34.33691 -0.781249
2003-06-23 08:31:49 51°23.53 2°25.92 40.872152 5.138093 34.338264 -0.74754
2003-06-23 08:32:49 51°23.78 2°25.98 37.401772 5.138198 34.338033 -0.74754
2003-06-23 08:33:49 51°24.03 2°26.04 40.042528 5.138515 34.339388 -0.74754
2003-06-23 08:34:49 51°24.29 2°26.07 37.172928 5.138515 34.338364 -0.781249
2003-06-23 08:35:49 51°24.54 2°26.1 39.39984 5.138937 34.339999 -0.781249
2003-06-23 08:36:49 51°24.79 2°26.14 39.999537 5.139043 34.339768 -0.781249
2003-06-23 08:37:49 51°25.04 2°26.17 40.019948 5.13936 34.340611 -0.781249
2003-06-23 08:38:49 51°25.3 2°26.21 37.788725 5.139571 34.341173 -0.74754
2003-06-23 08:39:49 51°25.55 2°26.24 41.297801 5.139782 34.341223 -0.781249
2003-06-23 08:40:49 51°25.8 2°26.27 34.615077 5.139993 34.342296 -0.74754
2003-06-23 08:41:49 51°26.05 2°26.3 37.55964 5.140415 34.343419 -0.781249
2003-06-23 08:42:49 51°26.3 2°26.33 37.9848 5.140415 34.342907 -0.74754
2003-06-23 08:43:49 51°26.55 2°26.36 39.66855 5.140521 34.341653 -0.74754
2003-06-23 08:44:49 51°26.79 2°26.39 42.96804 5.140943 34.3438 -0.74754
2003-06-23 08:45:49 51°27.04 2°26.42 37.633611 5.141048 34.343057 -0.74754
2003-06-23 08:46:49 51°27.29 2°26.45 39.92997 5.141365 34.344411 -0.814958
2003-06-23 08:47:49 51°27.54 2°26.48 42.045243 5.14126 34.342595 -0.74754
2003-06-23 08:48:49 51°27.79 2°26.52 41.276452 5.141471 34.342645 -0.814958
2003-06-23 08:49:49 51°28.04 2°26.55 38.763541 5.141471 34.341622 -0.781249
2003-06-23 08:50:49 51°28.29 2°26.57 42.308618 5.142104 34.345353 -0.781249
2003-06-23 08:51:49 51°28.54 2°26.6 44.076002 5.142315 34.346426 -0.74754
2003-06-23 08:52:49 51°28.78 2°26.63 41.73334 5.142632 34.346757 -0.781249
2003-06-23 08:53:49 51°29.03 2°26.71 41.214237 5.142526 34.345453 -0.814958
2003-06-23 08:54:49 51°29.27 2°26.81 41.867178 5.142526 34.34443 -0.74754
2003-06-23 08:55:49 51°29.51 2°26.91 40.845372 5.143054 34.347368 -0.781249
2003-06-23 08:56:49 51°29.75 2°27.01 42.769055 5.142948 34.345553 -0.74754
2003-06-23 08:57:49 51°29.99 2°27.11 40.349236 5.143476 34.34798 -0.781249
2003-06-23 08:58:49 51°30.23 2°27.21 41.253689 5.143582 34.347237 -0.74754
2003-06-23 08:59:49 51°30.47 2°27.31 37.783073 5.143793 34.347799 -0.814958
2003-06-23 09:00:49 51°30.71 2°27.41 42.70669 5.144004 34.347849 -0.74754
2003-06-23 09:01:49 51°30.95 2°27.51 42.393709 5.144321 34.348691 -0.781249
2003-06-23 09:02:49 51°31.19 2°27.61 36.449643 5.144532 34.349252 -0.781249
2003-06-23 09:03:49 51°31.43 2°27.72 41.995736 5.144743 34.349302 -0.781249
2003-06-23 09:04:49 51°31.67 2°27.84 40.368942 5.14506 34.349633 -0.781249
2003-06-23 09:05:49 51°31.91 2°27.96 39.763491 5.145271 34.349683 -0.781249
2003-06-23 09:06:49 51°32.15 2°28.09 42.132845 5.145376 34.349452 -0.781249
2003-06-23 09:07:49 51°32.39 2°28.21 43.636145 5.145799 34.351086 -0.74754
2003-06-23 09:08:49 51°32.63 2°28.34 40.588534 5.14601 34.351648 -0.781249
2003-06-23 09:09:49 51°32.87 2°28.47 43.923061 5.14601 34.350625 -0.74754
2003-06-23 09:10:49 51°33.11 2°28.59 44.642059 5.146221 34.349653 -0.814958
2003-06-23 09:11:49 51°33.34 2°28.71 42.06791 5.146749 34.35259 -0.781249
2003-06-23 09:12:49 51°33.58 2°28.84 43.438062 5.146749 34.351567 -0.781249
2003-06-23 09:13:49 51°33.82 2°28.96 43.953992 5.147065 34.352409 -0.781249
2003-06-23 09:14:49 51°34.06 2°29.08 39.942408 5.147382 34.35274 -0.781249
2003-06-23 09:15:49 51°34.3 2°29.2 44.337335 5.147804 34.354374 -0.781249
2003-06-23 09:16:49 51°34.53 2°29.33 41.212829 5.148015 34.354935 -0.781249
2003-06-23 09:17:49 51°34.77 2°29.45 43.641616 5.148015 34.353913 -0.781249
2003-06-23 09:18:49 51°35.01 2°29.57 39.396522 5.148332 34.354243 -0.781249
2003-06-23 09:19:49 51°35.25 2°29.69 40.512427 5.148649 34.355596 -0.781249
2003-06-23 09:20:49 51°35.49 2°29.8 39.071992 5.148965 34.356438 -0.781249
2003-06-23 09:21:49 51°35.73 2°29.91 39.654697 5.148754 34.353833 -0.781249
2003-06-23 09:22:49 51°35.97 2°30.02 39.4824 5.149387 34.35756 -0.781249
2003-06-23 09:23:49 51°36.21 2°30.14 37.673561 5.149599 34.35761 -0.781249
2003-06-23 09:24:49 51°36.45 2°30.25 38.772847 5.149704 34.356358 -0.74754
2003-06-23 09:25:49 51°36.69 2°30.36 36.813431 5.150126 34.359013 -0.781249
2003-06-23 09:26:49 51°36.92 2°30.47 40.999385 5.150232 34.357761 -0.814958
2003-06-23 09:27:49 51°37.16 2°30.58 42.104624 5.150443 34.358322 -0.74754
2003-06-23 09:28:49 51°37.4 2°30.69 41.299453 5.15076 34.359163 -0.781249
2003-06-23 09:29:49 51°37.64 2°30.8 41.771967 5.151182 34.359264 -0.781249
2003-06-23 09:30:49 51°37.87 2°30.95 42.595399 5.151182 34.359264 -0.814958
2003-06-23 09:31:49 51°38 2°31.27 43.211362 5.151499 34.359595 -0.814958
2003-06-23 09:32:49 51°38 2°31.66 41.516331 5.151604 34.357832 -0.781249
2003-06-23 09:33:49 51°37.97 2°32.05 43.018349 5.152132 34.361278 -0.781249
2003-06-23 09:34:49 51°37.94 2°32.43 41.948415 5.152237 34.359005 -0.781249
2003-06-23 09:35:49 51°37.9 2°32.81 42.498519 5.152554 34.360357 -0.781249
2003-06-23 09:36:49 51°37.86 2°33.2 42.436855 5.15266 34.360637 -0.74754
2003-06-23 09:37:49 51°37.82 2°33.57 40.471753 5.153188 34.36255 -0.814958
2003-06-23 09:38:49 51°37.77 2°33.95 44.154821 5.153399 34.36209 -0.814958
2003-06-23 09:39:49 51°37.72 2°34.32 44.314922 5.153715 34.362931 -0.781249
2003-06-23 09:40:49 51°37.67 2°34.7 45.85554 5.154032 34.363773 -0.781249
2003-06-23 09:41:49 51°37.6 2°35.06 41.045474 5.154243 34.362802 -0.781249
2003-06-23 09:42:49 51°37.48 2°35.39 45.788059 5.154454 34.362852 -0.781249
2003-06-23 09:43:49 51°37.33 2°35.68 42.305264 5.154665 34.363413 -0.814958
2003-06-23 09:44:49 51°37.17 2°35.94 42.740118 5.155088 34.364024 -0.781249
2003-06-23 09:45:49 51°36.98 2°36.13 38.060067 5.155299 34.364585 -0.781249
2003-06-23 09:46:49 51°36.8 2°36.34 42.450851 5.155404 34.362824 -0.74754
2003-06-23 09:47:49 51°36.59 2°36.47 40.078077 5.155721 34.363665 -0.781249
2003-06-23 09:48:49 51°36.37 2°36.5 41.367195 5.156038 34.364507 -0.74754
2003-06-23 09:49:49 51°36.16 2°36.51 43.072848 5.156354 34.365348 -0.781249
2003-06-23 09:50:49 51°35.94 2°36.52 43.102838 5.156671 34.366189 -0.781249
2003-06-23 09:51:49 51°35.72 2°36.54 44.711339 5.156882 34.365219 -0.781249
2003-06-23 09:52:49 51°35.51 2°36.55 45.364277 5.157199 34.36555 -0.781249
2003-06-23 09:53:49 51°35.29 2°36.57 41.984515 5.157621 34.367182 -0.74754
2003-06-23 09:54:49 51°35.07 2°36.61 43.616489 5.157832 34.366722 -0.814958
2003-06-23 09:55:49 51°34.85 2°36.64 44.467477 5.158254 34.368354 -0.781249
2003-06-23 09:56:49 51°34.63 2°36.68 45.264271 5.15836 34.366593 -0.781249
2003-06-23 09:57:49 51°34.41 2°36.71 42.368143 5.158888 34.368505 -0.74754
2003-06-23 09:58:49 51°34.2 2°36.74 41.036608 5.159204 34.369346 -0.781249
2003-06-23 09:59:49 51°33.98 2°36.77 41.758465 5.159521 34.368657 -0.781249
2003-06-23 10:00:49 51°33.76 2°36.78 41.614762 5.159732 34.369218 -0.781249
2003-06-23 10:01:49 51°33.54 2°36.79 40.52984 5.160049 34.369549 -0.781249
2003-06-23 10:02:49 51°33.32 2°36.8 41.340606 5.16026 34.36909 -0.781249
2003-06-23 10:03:49 51°33.11 2°36.81 39.627765 5.160471 34.368631 -0.781249
2003-06-23 10:04:49 51°32.89 2°36.82 40.16814 5.160893 34.369752 -0.74754
2003-06-23 10:05:49 51°32.67 2°36.82 40.657943 5.161104 34.369803 -0.781249
2003-06-23 10:06:49 51°32.45 2°36.83 39.952171 5.161421 34.370134 -0.74754
2003-06-23 10:07:49 51°32.24 2°36.83 40.556415 5.161738 34.370465 -0.781249
2003-06-23 10:08:49 51°32.02 2°36.83 40.572152 5.161949 34.370006 -0.74754
2003-06-23 10:09:49 51°31.81 2°36.83 40.060941 5.162265 34.370337 -0.781249
2003-06-23 10:10:49 51°31.6 2°36.82 41.427248 5.162688 34.371968 -0.781249
2003-06-23 10:11:49 51°31.39 2°36.82 41.25886 5.162899 34.372019 -0.781249
2003-06-23 10:12:49 51°31.17 2°36.82 42.212914 5.16311 34.37105 -0.814958
2003-06-23 10:13:49 51°30.96 2°36.81 40.515916 5.163321 34.372121 -0.74754
2003-06-23 10:14:49 51°30.75 2°36.81 40.885954 5.163638 34.371433 -0.74754
2003-06-23 10:15:49 51°30.54 2°36.81 39.719479 5.163954 34.371764 -0.781249
2003-06-23 10:16:49 51°30.33 2°36.8 38.940015 5.164271 34.372095 -0.781249
2003-06-23 10:17:49 51°30.12 2°36.8 39.872233 5.164693 34.373216 -0.781249
2003-06-23 10:18:49 51°29.91 2°36.85 41.12305 5.16501 34.373547 -0.74754
2003-06-23 10:19:49 51°29.7 2°36.96 39.908821 5.165327 34.373369 -0.74754
2003-06-23 10:20:49 51°29.49 2°37.07 41.34513 5.165643 34.373701 -0.781249
2003-06-23 10:21:49 51°29.28 2°37.18 40.062307 5.16596 34.373523 -0.781249
2003-06-23 10:22:49 51°29.07 2°37.28 40.37389 5.166171 34.373574 -0.781249
2003-06-23 10:23:49 51°28.86 2°37.39 41.315232 5.166593 34.374185 -0.74754
2003-06-23 10:24:49 51°28.65 2°37.51 40.220556 5.166804 34.374237 -0.814958
2003-06-23 10:25:49 51°28.44 2°37.64 39.667583 5.167121 34.374568 -0.814958
2003-06-23 10:26:49 51°28.23 2°37.77 37.482043 5.167649 34.376478 -0.74754
2003-06-23 10:27:49 51°28.02 2°37.89 40.620424 5.167649 34.37546 -0.781249
2003-06-23 10:28:49 51°27.82 2°38.04 39.942657 5.168177 34.37737 -0.74754
2003-06-23 10:29:49 51°27.61 2°38.18 39.99528 5.168177 34.376352 -0.814958
2003-06-23 10:30:49 51°27.42 2°38.34 39.922973 5.168705 34.37877 -0.781249
2003-06-23 10:31:49 51°27.22 2°38.51 39.156111 5.16881 34.377523 -0.781249
2003-06-23 10:32:49 51°27.02 2°38.68 39.593111 5.169021 34.378084 -0.74754
2003-06-23 10:33:49 51°26.83 2°38.85 39.190889 5.169232 34.378135 -0.781249
2003-06-23 10:34:49 51°26.63 2°39.02 40.390838 5.169549 34.377957 -0.74754
2003-06-23 10:35:49 51°26.43 2°39.19 39.533071 5.16976 34.378009 -0.781249
2003-06-23 10:36:49 51°26.24 2°39.36 40.14513 5.170077 34.37834 -0.781249
2003-06-23 10:37:49 51°26.04 2°39.53 40.646384 5.170393 34.379689 -0.781249
2003-06-23 10:38:49 51°25.85 2°39.7 38.318571 5.170605 34.378723 -0.781249
2003-06-23 10:39:49 51°25.65 2°39.86 40.728741 5.170816 34.378775 -0.781249
2003-06-23 10:40:49 51°25.46 2°40.03 39.252216 5.171027 34.378317 -0.781249
2003-06-23 10:41:49 51°25.26 2°40.19 38.480634 5.171449 34.380964 -0.781249
2003-06-23 10:42:49 51°25.06 2°40.35 40.788893 5.171555 34.379209 -0.781249
2003-06-23 10:43:49 51°24.86 2°40.52 39.096344 5.17166 34.377455 -0.781249
2003-06-23 10:44:49 51°24.67 2°40.68 40.421198 5.172082 34.378575 -0.781249
2003-06-23 10:45:49 51°24.47 2°40.85 41.779416 5.172293 34.378118 -0.781249
2003-06-23 10:46:49 51°24.27 2°41.02 40.124843 5.172716 34.379238 -0.781249
2003-06-23 10:47:49 51°24.08 2°41.19 42.084875 5.173032 34.380587 -0.781249
2003-06-23 10:48:49 51°23.89 2°41.39 40.006248 5.173243 34.380639 -0.814958
2003-06-23 10:49:49 51°23.7 2°41.6 39.977225 5.173455 34.38069 -0.781249
2003-06-23 10:50:49 51°23.53 2°41.82 38.118761 5.174088 34.383896 -0.781249
2003-06-23 10:51:49 51°23.38 2°42.06 39.618275 5.173982 34.381074 -0.781249
2003-06-23 10:52:49 51°23.27 2°42.28 35.925648 5.174299 34.380897 -0.781249
2003-06-23 10:53:49 51°23.16 2°42.5 39.056622 5.174827 34.381789 -0.74754
2003-06-23 10:54:49 51°23.06 2°42.72 38.410987 5.175038 34.381332 -0.781249
2003-06-23 10:55:49 51°22.95 2°42.96 35.295726 5.175566 34.383749 -0.814958
2003-06-23 10:56:49 51°22.82 2°43.22 36.844359 5.175355 34.382172 -0.781249
2003-06-23 10:57:49 51°22.71 2°43.5 37.151108 5.175988 34.383852 -0.781249
2003-06-23 10:58:49 51°22.56 2°43.76 37.495377 5.176199 34.383904 -0.781249
2003-06-23 10:59:49 51°22.4 2°44.01 35.344309 5.176516 34.383728 -0.781249
2003-06-23 11:00:49 51°22.24 2°44.27 36.535451 5.176516 34.378647 -0.74754
2003-06-23 11:01:49 51°22.08 2°44.53 35.535094 5.177149 34.384391 -0.74754
2003-06-23 11:02:49 51°21.92 2°44.78 36.013558 5.177466 34.381675 -0.781249
2003-06-23 11:03:49 51°21.76 2°45.04 36.640152 5.177782 34.383023 -0.781249
2003-06-23 11:04:49 51°21.6 2°45.3 36.928161 5.177782 34.382007 -0.74754
2003-06-23 11:05:49 51°21.45 2°45.55 37.303304 5.177888 34.380763 -0.781249
2003-06-23 11:06:49 51°21.29 2°45.81 33.704852 5.178205 34.382111 -0.781249
2003-06-23 11:07:49 51°21.13 2°46.06 36.041274 5.178732 34.384019 -0.781249
2003-06-23 11:08:49 51°20.97 2°46.31 34.582832 5.179049 34.384859 -0.74754
2003-06-23 11:09:49 51°20.81 2°46.56 36.665868 5.179155 34.383108 -0.814958
2003-06-23 11:10:49 51°20.65 2°46.82 36.296491 5.179788 34.385295 -0.74754
2003-06-23 11:11:49 51°20.48 2°47.07 34.851253 5.179999 34.384332 -0.781249
2003-06-23 11:12:49 51°20.32 2°47.32 36.556759 5.180421 34.386467 -0.781249
2003-06-23 11:13:49 51°20.16 2°47.57 36.718215 5.180633 34.383981 -0.814958
2003-06-23 11:14:49 51°20 2°47.82 35.168509 5.180949 34.384313 -0.74754
2003-06-23 11:15:49 51°19.84 2°48.08 36.034942 5.18116 34.383858 -0.781249
2003-06-23 11:16:49 51°19.68 2°48.33 34.447194 5.181688 34.386273 -0.71383
2003-06-23 11:17:49 51°19.52 2°48.58 34.284091 5.18211 34.388407 -0.781249
2003-06-23 11:18:49 51°19.35 2°48.82 35.543929 5.182638 34.388284 -0.781249
2003-06-23 11:19:49 51°19.19 2°49.08 35.385228 5.182533 34.384452 -0.71383
2003-06-23 11:20:49 51°19.03 2°49.32 34.026006 5.182849 34.386307 -0.781249
2003-06-23 11:21:49 51°18.87 2°49.57 36.382237 5.183377 34.388213 -0.781249
2003-06-23 11:22:49 51°18.71 2°49.82 34.057443 5.183799 34.387304 -0.781249
2003-06-23 11:23:49 51°18.56 2°50.08 36.437206 5.183694 34.386516 -0.781249
2003-06-23 11:24:49 51°18.43 2°50.38 36.30638 5.184116 34.38155 -0.781249
2003-06-23 11:25:49 51°18.3 2°50.67 36.820348 5.185172 34.395 -0.814958
2003-06-23 11:26:49 51°18.17 2°50.96 35.359916 5.185805 34.394649 -0.74754
2003-06-23 11:27:49 51°18.04 2°51.26 35.315525 5.186755 34.398182 -0.74754
2003-06-23 11:28:49 51°17.91 2°51.55 35.530133 5.187072 34.412722 -0.74754
2003-06-23 11:29:49 51°17.78 2°51.84 37.061579 5.186333 34.411273 -0.781249
2003-06-23 11:30:49 51°17.63 2°52.09 36.510309 5.188339 34.403899 -0.781249
2003-06-23 11:31:49 51°17.43 2°52.23 37.23311 5.189183 34.407658 -0.781249
2003-06-23 11:32:49 51°17.22 2°52.35 35.970318 5.189817 34.409842 -0.781249
2003-06-23 11:33:49 51°17.01 2°52.49 36.246502 5.190239 34.412482 -0.781249
2003-06-23 11:34:49 51°16.81 2°52.63 36.086661 5.190028 34.408373 -0.781249
2003-06-23 11:35:49 51°16.6 2°52.77 36.366115 5.190556 34.411799 -0.781249
2003-06-23 11:36:49 51°16.4 2°52.93 35.762504 5.191083 34.411169 -0.781249
2003-06-23 11:37:49 51°16.2 2°53.1 37.045466 5.190978 34.409875 -0.74754
2003-06-23 11:38:49 51°16 2°53.27 36.729605 5.191294 34.410207 -0.781249
2003-06-23 11:39:49 51°15.8 2°53.44 36.683774 5.190978 34.406833 -0.781249
2003-06-23 11:40:49 51°15.6 2°53.6 36.074656 5.191611 34.405469 -0.781249
2003-06-23 11:41:49 51°15.4 2°53.77 35.31849 5.191505 34.396069 -0.74754
2003-06-23 11:42:49 51°15.21 2°53.94 36.697921 5.191189 34.402323 -0.74754
2003-06-23 11:43:49 51°15.01 2°54.11 39.006628 5.192033 34.405574 -0.781249
2003-06-23 11:44:49 51°14.83 2°54.33 36.237322 5.192878 34.411358 -0.781249
2003-06-23 11:45:49 51°14.66 2°54.56 36.243345 5.192667 34.405225 -0.74754
2003-06-23 11:46:49 51°14.51 2°54.76 38.118538 5.193511 34.408475 -0.781249
2003-06-23 11:47:49 51°14.38 2°54.98 37.128413 5.193511 34.407968 -0.781249
2003-06-23 11:48:49 51°14.28 2°55.22 38.20086 5.193722 34.409034 -0.74754